Time;durP1;ratioP1;P1;durP2;ratioP2;P2;SDS_P1;SDS_P2;PMS_P1;PMS_P2;Temp;Humidity;BMP_temperature;BMP_pressure;BME280_temperature;BME280_humidity;BME280_pressure;Samples;Min_cycle;Max_cycle;Signal;HPM_P1;HPM_P2
2022/09/30 00:07:58;;;;;;;;;;;;;;;11.08;100.00;100534.59;20974954;28;19967;-63
2022/09/30 00:18:20;;;;;;;;;;;;;;;10.96;100.00;100532.84;20987312;28;20341;-62
2022/09/30 00:28:42;;;;;;;;;;;;;;;10.91;100.00;100548.00;20975792;28;20368;-63
2022/09/30 00:39:03;;;;;;;;;;;;;;;10.76;100.00;100551.69;20975429;28;20344;-62
2022/09/30 00:49:25;;;;;;;;;;;;;;;10.71;100.00;100543.34;20964745;28;19924;-62
2022/09/30 00:59:48;;;;;;;;;;;;;;;10.53;100.00;100554.22;20964388;28;19978;-62
2022/09/30 01:10:10;;;;;;;;;;;;;;;10.57;100.00;100553.91;20964111;28;19966;-62
2022/09/30 01:20:51;;;;;;;;;;;;;;;10.46;100.00;100546.94;20975443;28;19928;-62
2022/09/30 01:31:13;;;;;;;;;;;;;;;10.23;100.00;100552.84;20958472;28;20288;-62
2022/09/30 01:41:43;;;;;;;;;;;;;;;10.20;100.00;100547.84;20957156;28;19920;-62
2022/09/30 01:52:08;;;;;;;;;;;;;;;10.30;100.00;100541.91;20920266;28;1072206;-62
2022/09/30 02:02:32;;;;;;;;;;;;;;;10.11;100.00;100540.66;20957170;28;20300;-63
2022/09/30 02:13:14;;;;;;;;;;;;;;;10.07;100.00;100552.19;20958717;28;20461;-63
2022/09/30 02:23:40;;;;;;;;;;;;;;;9.89;100.00;100556.03;20965308;28;19924;-62
2022/09/30 02:34:07;;;;;;;;;;;;;;;9.93;100.00;100557.47;20959351;28;19939;-62
2022/09/30 02:44:30;;;;;;;;;;;;;;;9.79;100.00;100560.13;20958969;28;19933;-63
2022/09/30 02:54:55;;;;;;;;;;;;;;;9.63;100.00;100570.72;20958639;28;19928;-62
2022/09/30 03:05:16;;;;;;;;;;;;;;;9.61;100.00;100587.34;20947197;28;20349;-62
2022/09/30 03:15:47;;;;;;;;;;;;;;;9.50;100.00;100589.81;20956080;28;19928;-64
2022/09/30 03:26:12;;;;;;;;;;;;;;;9.56;100.00;100594.63;20963058;28;19925;-64
2022/09/30 03:36:33;;;;;;;;;;;;;;;9.38;100.00;100600.19;20961916;28;19975;-64
2022/09/30 03:46:57;;;;;;;;;;;;;;;9.35;100.00;100609.00;20954322;28;19963;-64
2022/09/30 03:57:19;;;;;;;;;;;;;;;9.57;100.00;100612.75;20959945;28;19931;-63
2022/09/30 04:07:40;;;;;;;;;;;;;;;9.52;100.00;100618.34;20958567;28;19925;-64
2022/09/30 04:18:03;;;;;;;;;;;;;;;9.48;100.00;100629.88;20956410;28;19932;-63
2022/09/30 04:28:25;;;;;;;;;;;;;;;9.51;100.00;100643.53;20960626;28;19987;-64
2022/09/30 04:38:46;;;;;;;;;;;;;;;9.46;100.00;100648.16;20959951;28;19977;-64
2022/09/30 04:49:08;;;;;;;;;;;;;;;9.49;100.00;100661.00;20970094;28;19950;-63
2022/09/30 04:59:30;;;;;;;;;;;;;;;9.44;100.00;100663.06;20973854;28;19925;-63
2022/09/30 05:09:52;;;;;;;;;;;;;;;9.44;100.00;100681.28;20965807;28;20479;-63
2022/09/30 05:20:13;;;;;;;;;;;;;;;9.39;100.00;100680.72;20971988;28;19994;-64
2022/09/30 05:30:42;;;;;;;;;;;;;;;9.26;100.00;100679.81;20972112;28;19928;-64
2022/09/30 05:41:07;;;;;;;;;;;;;;;9.10;100.00;100694.69;20965964;28;19932;-64
2022/09/30 05:51:29;;;;;;;;;;;;;;;9.06;100.00;100700.97;20966504;28;19990;-63
2022/09/30 06:01:51;;;;;;;;;;;;;;;9.11;100.00;100711.94;20961457;28;20003;-63
2022/09/30 06:12:15;;;;;;;;;;;;;;;9.06;100.00;100726.16;20964088;28;19924;-64
2022/09/30 06:22:37;;;;;;;;;;;;;;;9.05;100.00;100727.91;20984057;28;19979;-64
2022/09/30 06:33:00;;;;;;;;;;;;;;;9.25;100.00;100724.94;20965910;28;19925;-64
2022/09/30 06:43:21;;;;;;;;;;;;;;;9.14;100.00;100727.38;20965341;28;20331;-64
2022/09/30 06:53:43;;;;;;;;;;;;;;;9.38;100.00;100744.09;20960312;28;19936;-64
2022/09/30 07:04:08;;;;;;;;;;;;;;;9.50;100.00;100756.34;20958490;28;20006;-64
2022/09/30 07:14:31;;;;;;;;;;;;;;;9.60;100.00;100762.66;20967771;28;19920;-62
2022/09/30 07:24:53;;;;;;;;;;;;;;;9.82;100.00;100757.78;20983089;28;19928;-64
2022/09/30 07:35:14;;;;;;;;;;;;;;;10.02;100.00;100755.63;20959603;28;19924;-63
2022/09/30 07:45:36;;;;;;;;;;;;;;;10.32;100.00;100752.84;20961152;28;19936;-64
2022/09/30 07:56:01;;;;;;;;;;;;;;;10.65;100.00;100752.31;20975934;28;19932;-65
2022/09/30 08:06:24;;;;;;;;;;;;;;;10.79;100.00;100754.81;20948264;28;19928;-64
2022/09/30 08:16:45;;;;;;;;;;;;;;;10.98;100.00;100755.28;20969368;28;19928;-64
2022/09/30 08:27:07;;;;;;;;;;;;;;;11.30;100.00;100769.59;20973116;28;19928;-64
2022/09/30 08:37:28;;;;;;;;;;;;;;;11.45;100.00;100776.38;20978101;28;20023;-64
2022/09/30 08:47:56;;;;;;;;;;;;;;;11.80;100.00;100782.59;20975610;28;20369;-64
2022/09/30 08:58:23;;;;;;;;;;;;;;;11.92;100.00;100787.81;20970466;28;19924;-64
2022/09/30 09:08:48;;;;;;;;;;;;;;;12.38;100.00;100795.81;20973513;28;19924;-65
2022/09/30 09:19:11;;;;;;;;;;;;;;;12.85;100.00;100794.81;20973169;28;19928;-63
2022/09/30 09:29:47;;;;;;;;;;;;;;;13.04;99.76;100799.53;20961130;28;19981;-64
2022/09/30 09:40:14;;;;;;;;;;;;;;;13.44;97.58;100791.19;20961859;28;19978;-64
2022/09/30 09:50:55;;;;;;;;;;;;;;;13.68;95.89;100791.94;20961237;28;19928;-64
2022/09/30 10:01:33;;;;;;;;;;;;;;;13.68;94.96;100800.59;20977432;28;20441;-64
2022/09/30 10:12:04;;;;;;;;;;;;;;;13.84;90.40;100789.75;20966892;28;19975;-64
2022/09/30 10:22:30;;;;;;;;;;;;;;;13.88;89.76;100791.19;20966086;28;19967;-64
2022/09/30 10:32:51;;;;;;;;;;;;;;;13.94;88.20;100786.28;20964085;28;19928;-64
2022/09/30 10:43:35;;;;;;;;;;;;;;;14.00;89.05;100780.56;20970075;28;19932;-64
2022/09/30 10:53:57;;;;;;;;;;;;;;;14.63;89.46;100775.41;20974725;28;19971;-64
2022/09/30 11:04:18;;;;;;;;;;;;;;;14.47;85.93;100786.31;20962588;28;20524;-64
2022/09/30 11:14:50;;;;;;;;;;;;;;;14.60;85.20;100802.72;20968160;28;19980;-64
2022/09/30 11:25:16;;;;;;;;;;;;;;;15.28;79.92;100800.53;20954372;28;19925;-64
2022/09/30 11:35:42;;;;;;;;;;;;;;;14.89;81.88;100790.66;20962600;28;20333;-64
2022/09/30 11:46:16;;;;;;;;;;;;;;;15.17;79.21;100769.03;20956007;28;20373;-63
2022/09/30 11:56:57;;;;;;;;;;;;;;;14.93;79.78;100773.72;20975260;28;19928;-64
2022/09/30 12:07:21;;;;;;;;;;;;;;;15.08;77.64;100756.69;20975772;28;19924;-64
2022/09/30 12:17:42;;;;;;;;;;;;;;;14.93;79.09;100757.97;20971148;28;19978;-64
2022/09/30 12:30:15;;;;;;;;;;;;;;;15.22;76.86;100756.34;20973090;28;19974;-64
2022/09/30 12:39:05;;;;;;;;;;;;;;;15.54;77.02;100733.44;20972247;28;19924;-64
2022/09/30 12:49:28;;;;;;;;;;;;;;;15.50;73.99;100737.31;20966218;28;20303;-64
2022/09/30 12:59:52;;;;;;;;;;;;;;;15.98;73.00;100733.03;20962159;28;20593;-64
2022/09/30 13:10:27;;;;;;;;;;;;;;;15.84;71.89;100730.78;20966865;28;19955;-64
2022/09/30 13:20:58;;;;;;;;;;;;;;;15.80;70.17;100722.31;20954373;28;19974;-64
2022/09/30 13:31:23;;;;;;;;;;;;;;;15.95;70.94;100712.25;20964275;28;19974;-64
2022/09/30 13:41:49;;;;;;;;;;;;;;;16.04;70.76;100707.03;20968096;28;19925;-64
2022/09/30 13:52:26;;;;;;;;;;;;;;;16.17;69.69;100714.63;20975781;28;20270;-64
2022/09/30 14:03:05;;;;;;;;;;;;;;;16.17;72.80;100701.47;20981308;28;20327;-64
2022/09/30 14:13:40;;;;;;;;;;;;;;;15.89;69.97;100691.75;20961979;28;19972;-64
2022/09/30 14:24:13;;;;;;;;;;;;;;;15.88;70.78;100684.84;20973075;28;19951;-65
2022/09/30 14:34:35;;;;;;;;;;;;;;;15.98;71.21;100683.06;20959599;28;20498;-62
2022/09/30 14:45:03;;;;;;;;;;;;;;;16.28;69.69;100675.06;20961672;28;19928;-62
2022/09/30 14:55:34;;;;;;;;;;;;;;;16.17;70.02;100664.66;20984274;28;19934;-63
2022/09/30 15:05:56;;;;;;;;;;;;;;;16.12;68.42;100651.13;20944577;28;19975;-63
2022/09/30 15:16:23;;;;;;;;;;;;;;;15.97;71.17;100655.13;20959966;28;20011;-63
2022/09/30 15:26:46;;;;;;;;;;;;;;;16.01;70.05;100654.69;20960555;28;19933;-62
2022/09/30 15:37:16;;;;;;;;;;;;;;;15.64;73.14;100650.22;20962004;28;19924;-62
2022/09/30 15:47:52;;;;;;;;;;;;;;;15.54;71.57;100657.25;20962999;28;20408;-62
2022/09/30 15:58:26;;;;;;;;;;;;;;;15.87;72.48;100655.09;20959888;28;19935;-62
2022/09/30 16:08:52;;;;;;;;;;;;;;;15.63;73.08;100643.28;20949308;28;19929;-63
2022/09/30 16:19:16;;;;;;;;;;;;;;;15.27;74.18;100641.28;20931471;28;20002;-62
2022/09/30 16:29:37;;;;;;;;;;;;;;;15.18;74.89;100654.34;20945658;28;19928;-62
2022/09/30 16:40:04;;;;;;;;;;;;;;;14.87;76.56;100658.72;20961954;28;19925;-62
2022/09/30 16:50:34;;;;;;;;;;;;;;;14.55;80.11;100663.22;20960537;28;20054;-63
2022/09/30 17:00:59;;;;;;;;;;;;;;;14.22;81.93;100653.88;20963512;28;19978;-62
2022/09/30 17:11:25;;;;;;;;;;;;;;;13.78;84.59;100652.19;20948825;28;20018;-62
2022/09/30 17:21:47;;;;;;;;;;;;;;;13.71;84.97;100671.16;20954844;28;19936;-61
2022/09/30 17:32:08;;;;;;;;;;;;;;;13.38;86.88;100660.75;20953079;28;20025;-64
2022/09/30 17:53:15;;;;;;;;;;;;;;;13.52;84.63;100652.63;20949641;28;19974;-64
2022/09/30 18:03:37;;;;;;;;;;;;;;;13.22;85.76;100639.34;20941791;28;19935;-64
2022/09/30 18:13:58;;;;;;;;;;;;;;;13.37;84.56;100632.03;20951408;28;20018;-64
2022/09/30 18:25:18;;;;;;;;;;;;;;;13.38;86.19;100634.56;20945236;28;19974;-64
2022/09/30 18:35:05;;;;;;;;;;;;;;;13.63;83.16;100626.41;20947241;28;19964;-64
2022/09/30 18:45:31;;;;;;;;;;;;;;;13.37;84.26;100622.44;20941487;28;19932;-65
2022/09/30 18:55:53;;;;;;;;;;;;;;;13.35;86.18;100618.25;20957343;28;19979;-65
2022/09/30 19:06:14;;;;;;;;;;;;;;;13.48;83.24;100601.44;20942255;28;19958;-65
2022/09/30 19:16:36;;;;;;;;;;;;;;;13.16;86.19;100592.69;20961730;28;19936;-65
2022/09/30 19:26:59;;;;;;;;;;;;;;;13.22;84.60;100581.75;20959754;28;19928;-67
2022/09/30 19:37:20;;;;;;;;;;;;;;;13.18;84.00;100564.63;20958944;28;20005;-66
2022/09/30 19:47:48;;;;;;;;;;;;;;;12.89;85.19;100562.56;20954434;28;19929;-66
2022/09/30 19:58:09;;;;;;;;;;;;;;;12.96;83.58;100545.50;20948887;28;19924;-67
2022/09/30 20:08:32;;;;;;;;;;;;;;;13.07;83.02;100530.63;20946448;28;19932;-66
2022/09/30 20:18:53;;;;;;;;;;;;;;;13.07;83.81;100525.38;20972193;28;19989;-66
2022/09/30 20:29:18;;;;;;;;;;;;;;;13.11;83.23;100499.78;20969492;28;20396;-66
2022/09/30 20:39:41;;;;;;;;;;;;;;;12.91;83.80;100504.00;20973827;28;19925;-67
2022/09/30 20:50:03;;;;;;;;;;;;;;;12.77;85.31;100490.28;20978562;28;19924;-67
2022/09/30 21:00:24;;;;;;;;;;;;;;;12.67;84.72;100479.72;20962558;28;19997;-66
2022/09/30 21:10:46;;;;;;;;;;;;;;;12.52;85.23;100465.22;20972704;28;19928;-67
2022/09/30 21:21:09;;;;;;;;;;;;;;;12.46;86.54;100458.84;20968358;28;19936;-65
2022/09/30 21:31:32;;;;;;;;;;;;;;;12.56;86.66;100461.44;20973279;28;19925;-67
2022/09/30 21:41:54;;;;;;;;;;;;;;;12.68;83.65;100439.53;20964396;28;19969;-65
2022/09/30 21:52:15;;;;;;;;;;;;;;;12.79;83.15;100429.09;20996306;28;19928;-66
2022/09/30 22:02:37;;;;;;;;;;;;;;;12.59;83.61;100419.34;20968999;28;19928;-66
2022/09/30 22:12:58;;;;;;;;;;;;;;;12.66;84.51;100415.28;20964791;28;19925;-66
2022/09/30 22:23:19;;;;;;;;;;;;;;;12.59;84.01;100398.44;20950475;28;19935;-66
2022/09/30 22:44:24;;;;;;;;;;;;;;;12.60;84.06;100392.25;20960719;28;19928;-65
2022/09/30 22:54:45;;;;;;;;;;;;;;;12.69;84.20;100378.44;20964344;28;20355;-65
2022/09/30 23:05:07;;;;;;;;;;;;;;;12.61;84.19;100354.69;20961434;28;20431;-66
2022/09/30 23:15:28;;;;;;;;;;;;;;;12.61;82.75;100349.47;20963265;28;19978;-66
2022/09/30 23:26:00;;;;;;;;;;;;;;;12.67;82.99;100330.66;20957862;28;19947;-66
2022/09/30 23:36:25;;;;;;;;;;;;;;;12.69;83.09;100314.84;20971400;28;19928;-66
2022/09/30 23:57:26;;;;;;;;;;;;;;;12.77;83.17;100281.03;20954326;28;19978;-65
